Pineland, Florida
Current Conditions -  °F | °C
As of 3:53 PM on Thursday 18 Dec 2014 (Local Time) from KFMY Reporting Station
Clear Clear  
Wind Chill: 72°   Ceiling: Unl
Heat Index: 72°   Visibility: 10mi
Dew Point: 56°   Wind: 10mph
Humidity: 57%   Direction: 320°NW
Pressure: 30.08"   Gusts: NA
Location:  26.66°N, 82.15°W
Report Text: KFMY 182053Z AUTO 32009KT 10SM CLR 22/13 A3008 RMK AO2 SLP189 T02220133 56020
Loading
Personal Weather Stations






























Interactive Weather Map New forecast layout! Learn more

10-Day Weather Forecast

Advertisements
Track Severe Weather on mobile